createdAt,value
2022-09-28T00:00:06.183Z,26.90
2022-09-28T00:03:23.353Z,26.90
2022-09-28T00:05:55.019Z,26.90
2022-09-28T00:18:16.121Z,26.90
2022-09-28T00:20:47.247Z,26.90
2022-09-28T00:24:27.507Z,26.90
2022-09-28T00:27:50.831Z,26.90
2022-09-28T00:40:13.657Z,27.00
2022-09-28T00:43:07.287Z,27.00
2022-09-28T00:45:38.397Z,27.10
2022-09-28T00:48:37.676Z,27.00
2022-09-28T00:51:30.181Z,27.00
2022-09-28T01:09:13.356Z,27.00
2022-09-28T01:12:04.498Z,27.00
2022-09-28T01:15:27.017Z,27.00
2022-09-28T01:18:30.077Z,27.00
2022-09-28T01:35:09.536Z,27.10
2022-09-28T01:37:46.422Z,27.00
2022-09-28T01:40:58.716Z,27.10
2022-09-28T01:44:04.350Z,27.10
2022-09-28T01:46:49.466Z,27.10
2022-09-28T01:49:38.436Z,27.10
2022-09-28T01:55:32.495Z,27.10
2022-09-28T01:58:13.817Z,27.10
2022-09-28T02:37:58.096Z,27.10
2022-09-28T02:40:56.300Z,27.10
2022-09-28T02:43:52.054Z,27.10
2022-09-28T02:46:32.397Z,27.10
2022-09-28T02:49:31.161Z,27.10
2022-09-28T02:52:08.345Z,27.10
2022-09-28T02:55:19.749Z,27.10
2022-09-28T02:58:16.643Z,27.10
2022-09-28T03:01:11.940Z,27.10
2022-09-28T03:04:26.955Z,27.10
2022-09-28T03:07:28.710Z,27.20
2022-09-28T03:10:25.487Z,27.20
2022-09-28T03:47:53.164Z,27.10
2022-09-28T03:51:05.717Z,27.10
2022-09-28T03:54:26.940Z,27.20
2022-09-28T04:09:24.232Z,27.20
2022-09-28T04:12:58.980Z,27.20
2022-09-28T04:22:43.985Z,27.20
2022-09-28T04:25:34.978Z,27.20
2022-09-28T04:29:07.368Z,27.20
2022-09-28T04:50:04.531Z,27.30
2022-09-28T04:53:18.516Z,27.30
2022-09-28T04:56:14.740Z,27.30
2022-09-28T04:59:06.819Z,27.30
2022-09-28T05:09:18.453Z,27.40
2022-09-28T05:12:19.990Z,27.40
2022-09-28T05:15:32.509Z,27.30
2022-09-28T05:18:47.823Z,27.40
2022-09-28T05:28:03.034Z,27.40
2022-09-28T05:31:02.485Z,27.40
2022-09-28T05:35:08.442Z,27.40
2022-09-28T05:47:08.506Z,27.40
2022-09-28T05:49:39.689Z,27.40
2022-09-28T06:08:52.792Z,27.40
2022-09-28T06:11:34.093Z,27.40
2022-09-28T06:14:15.022Z,27.40
2022-09-28T06:16:46.561Z,27.40
2022-09-28T06:19:17.874Z,27.40
2022-09-28T06:22:24.293Z,27.40
2022-09-28T06:28:02.562Z,27.40
2022-09-28T06:30:36.026Z,27.40
2022-09-28T06:35:56.490Z,27.40
2022-09-28T06:38:28.868Z,27.50
2022-09-28T06:41:00.247Z,27.50
2022-09-28T06:43:34.350Z,27.50
2022-09-28T06:46:32.791Z,27.50
2022-09-28T06:49:22.056Z,27.50
2022-09-28T06:58:05.110Z,27.50
2022-09-28T07:00:38.300Z,27.60
2022-09-28T07:12:16.652Z,27.50
2022-09-28T07:14:58.917Z,27.60
2022-09-28T07:20:20.512Z,27.60
2022-09-28T07:23:01.410Z,27.50
2022-09-28T07:25:46.696Z,27.60
2022-09-28T07:28:47.105Z,27.50
2022-09-28T07:34:46.297Z,27.60
2022-09-28T07:37:50.298Z,27.60
2022-09-28T07:46:36.336Z,27.60
2022-09-28T07:49:17.942Z,27.60
2022-09-28T07:55:14.860Z,27.60
2022-09-28T07:58:05.844Z,27.60
2022-09-28T08:03:50.493Z,27.60
2022-09-28T08:06:21.565Z,27.60
2022-09-28T08:12:09.404Z,27.60
2022-09-28T08:14:52.361Z,27.60
2022-09-28T08:17:41.475Z,27.60
2022-09-28T08:23:18.430Z,27.60
2022-09-28T08:25:55.451Z,27.60
2022-09-28T08:28:27.581Z,27.60
2022-09-28T08:34:19.996Z,27.60
2022-09-28T08:37:16.966Z,27.60
2022-09-28T08:40:06.470Z,27.60
2022-09-28T08:42:47.483Z,27.60
2022-09-28T08:45:37.037Z,27.60
2022-09-28T08:48:33.628Z,27.60
2022-09-28T08:51:28.298Z,27.60
2022-09-28T08:57:43.291Z,27.60
2022-09-28T09:00:24.967Z,27.60
2022-09-28T09:02:56.141Z,27.60
2022-09-28T09:05:57.401Z,27.60
2022-09-28T09:09:13.605Z,27.60
2022-09-28T09:12:12.175Z,27.60
2022-09-28T09:15:06.440Z,27.60
2022-09-28T09:18:06.290Z,27.60
2022-09-28T09:21:19.076Z,27.60
2022-09-28T09:24:05.961Z,27.60
2022-09-28T09:26:42.145Z,27.60
2022-09-28T09:29:48.251Z,27.60
2022-09-28T09:32:55.007Z,27.60
2022-09-28T09:35:50.579Z,27.60
2022-09-28T09:39:03.949Z,27.60
2022-09-28T09:42:10.994Z,27.60
2022-09-28T09:45:37.932Z,27.60
2022-09-28T09:48:55.318Z,27.60
2022-09-28T09:51:37.860Z,27.60
2022-09-28T09:54:40.416Z,27.60
2022-09-28T09:57:23.736Z,27.60
2022-09-28T10:00:05.952Z,27.60
2022-09-28T10:02:54.083Z,27.60
2022-09-28T10:05:38.528Z,27.60
2022-09-28T10:08:18.284Z,27.60
2022-09-28T10:11:09.127Z,27.60
2022-09-28T10:13:44.097Z,27.60
2022-09-28T10:16:35.165Z,27.60
2022-09-28T10:22:33.097Z,27.70
2022-09-28T10:25:14.605Z,27.60
2022-09-28T10:27:53.883Z,27.60
2022-09-28T10:30:28.111Z,27.60
2022-09-28T10:33:02.207Z,27.60
2022-09-28T10:35:45.306Z,27.70
2022-09-28T10:41:15.625Z,27.70
2022-09-28T10:44:12.294Z,27.60
2022-09-28T10:49:58.361Z,27.70
2022-09-28T10:52:35.740Z,27.60
2022-09-28T10:55:28.611Z,27.60
2022-09-28T10:58:02.286Z,27.60
2022-09-28T11:00:46.484Z,27.60
2022-09-28T11:06:17.563Z,27.70
2022-09-28T11:11:45.874Z,27.70
2022-09-28T11:14:41.865Z,27.70
2022-09-28T11:17:35.213Z,27.70
2022-09-28T11:20:28.170Z,27.60
2022-09-28T11:23:21.766Z,27.60
2022-09-28T11:26:22.478Z,27.70
2022-09-28T11:28:55.124Z,27.60
2022-09-28T11:31:41.253Z,27.60
2022-09-28T11:37:37.098Z,27.60
2022-09-28T11:40:47.979Z,27.60
2022-09-28T11:44:06.591Z,27.60
2022-09-28T11:47:16.771Z,27.60
2022-09-28T11:49:51.251Z,27.60
2022-09-28T11:52:50.919Z,27.60
2022-09-28T11:55:54.967Z,27.70
2022-09-28T11:58:36.795Z,27.70
2022-09-28T12:08:16.906Z,27.60
2022-09-28T12:11:35.067Z,27.70
2022-09-28T12:14:27.859Z,27.70
2022-09-28T12:17:24.114Z,27.70
2022-09-28T12:20:05.494Z,27.60
2022-09-28T12:26:14.402Z,27.70
2022-09-28T12:28:52.831Z,27.70
2022-09-28T12:31:37.124Z,27.60
2022-09-28T12:37:12.429Z,27.60
2022-09-28T12:40:28.362Z,27.70
2022-09-28T12:43:30.828Z,27.60
2022-09-28T12:56:16.809Z,27.60
2022-09-28T12:59:09.254Z,27.70
2022-09-28T13:05:34.270Z,27.70
2022-09-28T13:08:35.534Z,27.70
2022-09-28T13:11:39.907Z,27.70
2022-09-28T13:14:33.703Z,27.70
2022-09-28T13:17:08.929Z,27.70
2022-09-28T13:26:22.952Z,27.60
2022-09-28T13:28:58.602Z,27.70
2022-09-28T13:34:46.617Z,27.60
2022-09-28T13:37:19.375Z,27.70
2022-09-28T13:39:57.141Z,27.60
2022-09-28T13:46:24.891Z,27.60
2022-09-28T13:49:24.624Z,27.60
2022-09-28T13:52:07.322Z,27.60
2022-09-28T13:55:18.299Z,27.60
2022-09-28T13:58:26.112Z,27.60
2022-09-28T14:01:09.351Z,27.60
2022-09-28T14:07:33.301Z,27.60
2022-09-28T14:10:27.940Z,27.60
2022-09-28T14:13:01.523Z,27.60
2022-09-28T14:15:47.154Z,27.70
2022-09-28T14:18:53.201Z,27.70
2022-09-28T14:21:43.877Z,27.60
2022-09-28T14:25:04.704Z,27.60
2022-09-28T14:28:10.083Z,27.60
2022-09-28T14:33:36.253Z,27.60
2022-09-28T14:36:11.226Z,27.70
2022-09-28T14:39:11.346Z,27.60
2022-09-28T14:41:45.308Z,27.60
2022-09-28T14:44:18.047Z,27.60
2022-09-28T14:46:50.689Z,27.60
2022-09-28T14:49:22.185Z,27.60
2022-09-28T14:51:56.863Z,27.60
2022-09-28T14:57:42.456Z,27.60
2022-09-28T15:00:26.047Z,27.70
2022-09-28T15:05:50.827Z,27.60
2022-09-28T15:08:25.105Z,27.60
2022-09-28T15:10:56.352Z,27.60
2022-09-28T15:13:50.667Z,27.60
2022-09-28T15:16:26.601Z,27.60
2022-09-28T15:22:21.415Z,27.70
2022-09-28T15:25:03.641Z,27.60
2022-09-28T15:27:44.062Z,27.60
2022-09-28T15:30:21.641Z,27.60
2022-09-28T15:32:58.614Z,27.70
2022-09-28T15:35:50.212Z,27.60
2022-09-28T15:38:21.607Z,27.60
2022-09-28T15:40:53.582Z,27.60
2022-09-28T15:43:34.416Z,27.60
2022-09-28T15:46:21.188Z,27.60
2022-09-28T15:48:53.551Z,27.60
2022-09-28T15:51:26.685Z,27.60
2022-09-28T15:53:59.748Z,27.60
2022-09-28T15:56:31.819Z,27.60
2022-09-28T15:59:33.636Z,27.70
2022-09-28T16:02:13.701Z,27.60
2022-09-28T16:08:28.899Z,27.70
2022-09-28T16:11:23.520Z,27.60
2022-09-28T16:14:20.208Z,27.60
2022-09-28T16:16:53.559Z,27.60
2022-09-28T16:19:34.057Z,27.60
2022-09-28T16:22:15.217Z,27.60
2022-09-28T16:24:57.485Z,27.70
2022-09-28T16:28:03.564Z,27.60
2022-09-28T16:34:59.491Z,27.60
2022-09-28T16:37:34.790Z,27.70
2022-09-28T16:43:14.619Z,27.60
2022-09-28T16:48:35.774Z,27.70
2022-09-28T16:51:26.066Z,27.70
2022-09-28T16:54:18.724Z,27.60
2022-09-28T16:59:58.846Z,27.60
2022-09-28T17:02:49.025Z,27.60
2022-09-28T17:05:23.860Z,27.60
2022-09-28T17:08:06.400Z,27.60
2022-09-28T17:11:23.776Z,27.60
2022-09-28T17:14:13.708Z,27.60
2022-09-28T17:17:08.947Z,27.60
2022-09-28T17:19:42.799Z,27.60
2022-09-28T17:22:15.575Z,27.60
2022-09-28T17:24:47.580Z,27.60
2022-09-28T17:27:22.387Z,27.60
2022-09-28T17:29:53.281Z,27.60
2022-09-28T17:32:24.165Z,27.70
2022-09-28T17:35:06.522Z,27.60
2022-09-28T17:37:46.791Z,27.60
2022-09-28T17:40:27.147Z,27.60
2022-09-28T17:42:59.311Z,27.60
2022-09-28T17:45:32.615Z,27.60
2022-09-28T17:48:03.935Z,27.60
2022-09-28T17:50:37.091Z,27.60
2022-09-28T17:53:08.177Z,27.60
2022-09-28T17:55:40.551Z,27.60
2022-09-28T17:58:24.473Z,27.60
2022-09-28T18:03:39.777Z,27.60
2022-09-28T18:06:15.812Z,27.60
2022-09-28T18:08:46.837Z,27.60
2022-09-28T18:11:21.476Z,27.60
2022-09-28T18:13:51.689Z,27.60
2022-09-28T18:16:23.976Z,27.60
2022-09-28T18:18:55.893Z,27.60
2022-09-28T18:21:26.855Z,27.60
2022-09-28T18:23:57.593Z,27.60
2022-09-28T18:26:29.297Z,27.60
2022-09-28T18:29:22.257Z,27.60
2022-09-28T18:31:53.550Z,27.60
2022-09-28T18:34:24.253Z,27.60
2022-09-28T18:36:54.843Z,27.60
2022-09-28T18:39:25.586Z,27.60
2022-09-28T18:41:56.486Z,27.60
2022-09-28T18:44:28.180Z,27.60
2022-09-28T18:46:59.152Z,27.60
2022-09-28T18:49:31.431Z,27.60
2022-09-28T18:52:02.805Z,27.60
2022-09-28T18:54:34.611Z,27.60
2022-09-28T18:57:07.212Z,27.60
2022-09-28T18:59:37.915Z,27.60
2022-09-28T19:04:54.038Z,27.60
2022-09-28T19:07:25.319Z,27.60
2022-09-28T19:09:56.485Z,27.60
2022-09-28T19:12:27.355Z,27.60
2022-09-28T19:14:58.456Z,27.60
2022-09-28T19:17:29.453Z,27.60
2022-09-28T19:20:23.108Z,27.60
2022-09-28T19:22:53.988Z,27.60
2022-09-28T19:25:24.881Z,27.60
2022-09-28T19:27:55.739Z,27.60
2022-09-28T19:30:26.781Z,27.60
2022-09-28T19:33:17.334Z,27.60
2022-09-28T19:36:00.489Z,27.60
2022-09-28T19:38:33.497Z,27.60
2022-09-28T19:41:09.671Z,27.60
2022-09-28T19:43:44.907Z,27.60
2022-09-28T19:46:16.925Z,27.60
2022-09-28T19:48:50.034Z,27.50
2022-09-28T19:51:21.509Z,27.60
2022-09-28T19:54:12.868Z,27.50
2022-09-28T19:56:44.483Z,27.50
2022-09-28T19:59:16.314Z,27.50
2022-09-28T20:01:47.660Z,27.50
2022-09-28T20:04:19.176Z,27.50
2022-09-28T20:06:51.525Z,27.50
2022-09-28T20:09:22.648Z,27.50
2022-09-28T20:11:54.583Z,27.50
2022-09-28T20:14:26.505Z,27.50
2022-09-28T20:17:01.839Z,27.50
2022-09-28T20:19:33.045Z,27.50
2022-09-28T20:22:04.282Z,27.50
2022-09-28T20:24:35.465Z,27.50
2022-09-28T20:27:06.493Z,27.50
2022-09-28T20:29:37.605Z,27.50
2022-09-28T20:32:08.690Z,27.50
2022-09-28T20:34:39.561Z,27.40
2022-09-28T20:37:10.514Z,27.40
2022-09-28T20:39:44.826Z,27.40
2022-09-28T20:42:16.762Z,27.40
2022-09-28T20:44:47.704Z,27.40
2022-09-28T20:47:18.574Z,27.40
2022-09-28T20:50:10.448Z,27.40
2022-09-28T20:52:41.640Z,27.40
2022-09-28T20:55:13.956Z,27.40
2022-09-28T20:57:45.087Z,27.40
2022-09-28T21:00:16.781Z,27.40
2022-09-28T21:02:52.623Z,27.40
2022-09-28T21:05:23.892Z,27.40
2022-09-28T21:07:54.879Z,27.40
2022-09-28T21:10:25.842Z,27.40
2022-09-28T21:12:56.923Z,27.40
2022-09-28T21:15:28.102Z,27.40
2022-09-28T21:18:19.388Z,27.40
2022-09-28T21:20:52.123Z,27.40
2022-09-28T21:23:25.024Z,27.30
2022-09-28T21:26:09.437Z,27.40
2022-09-28T21:28:40.695Z,27.40
2022-09-28T21:31:13.945Z,27.40
2022-09-28T21:33:44.803Z,27.40
2022-09-28T21:36:15.848Z,27.40
2022-09-28T21:38:47.016Z,27.40
2022-09-28T21:41:18.324Z,27.40
2022-09-28T21:43:49.255Z,27.40
2022-09-28T21:46:20.579Z,27.40
2022-09-28T21:48:55.593Z,27.40
2022-09-28T21:51:27.134Z,27.40
2022-09-28T21:53:58.519Z,27.40
2022-09-28T21:56:29.916Z,27.40
2022-09-28T21:59:02.482Z,27.40
2022-09-28T22:01:56.408Z,27.40
2022-09-28T22:04:27.364Z,27.30
2022-09-28T22:09:42.464Z,27.30
2022-09-28T22:12:13.553Z,27.40
2022-09-28T22:17:27.696Z,27.40
2022-09-28T22:19:58.665Z,27.40
2022-09-28T22:22:29.653Z,27.40
2022-09-28T22:25:00.670Z,27.40
2022-09-28T22:27:33.009Z,27.40
2022-09-28T22:30:03.941Z,27.40
2022-09-28T22:32:34.813Z,27.40
2022-09-28T22:35:05.808Z,27.30
2022-09-28T22:37:36.639Z,27.40
2022-09-28T22:40:08.294Z,27.30
2022-09-28T22:42:39.525Z,27.40
2022-09-28T22:45:11.207Z,27.40
2022-09-28T22:48:05.279Z,27.40
2022-09-28T22:50:36.578Z,27.30
2022-09-28T22:53:08.596Z,27.40
2022-09-28T22:55:39.670Z,27.40
2022-09-28T22:58:10.643Z,27.30
2022-09-28T23:00:41.913Z,27.30
2022-09-28T23:03:13.130Z,27.30
2022-09-28T23:05:52.930Z,27.30
2022-09-28T23:08:24.897Z,27.30
2022-09-28T23:10:55.828Z,27.30
2022-09-28T23:13:27.197Z,27.30
2022-09-28T23:16:06.678Z,27.30
2022-09-28T23:18:42.488Z,27.30
2022-09-28T23:21:19.921Z,27.40
2022-09-28T23:23:59.398Z,27.40
2022-09-28T23:26:33.297Z,27.40
2022-09-28T23:29:04.479Z,27.30
2022-09-28T23:31:35.957Z,27.40
2022-09-28T23:34:08.384Z,27.40
2022-09-28T23:36:39.474Z,27.40
2022-09-28T23:39:13.226Z,27.40
2022-09-28T23:41:44.132Z,27.40
2022-09-28T23:44:15.256Z,27.40
2022-09-28T23:47:09.014Z,27.40
2022-09-28T23:49:40.111Z,27.40
2022-09-28T23:52:11.019Z,27.40
2022-09-28T23:54:41.852Z,27.40
2022-09-28T23:57:12.826Z,27.40
2022-09-28T23:59:43.878Z,27.40
